createdAt,value
2018-10-07T00:00:52.368Z,95032.20
2018-10-07T00:15:50.167Z,95018.20
2018-10-07T00:30:53.302Z,94993.45
2018-10-07T00:45:50.635Z,94953.64
2018-10-07T01:00:52.641Z,94953.63
2018-10-07T01:15:50.581Z,94952.77
2018-10-07T01:30:52.551Z,94938.98
2018-10-07T01:45:52.927Z,94933.39
2018-10-07T02:00:51.915Z,94928.45
2018-10-07T02:15:52.704Z,94923.90
2018-10-07T02:30:50.884Z,94911.45
2018-10-07T02:45:52.215Z,94912.84
2018-10-07T03:00:52.719Z,94908.72
2018-10-07T03:15:53.165Z,94902.80
2018-10-07T03:30:51.044Z,94894.48
2018-10-07T03:45:50.484Z,94885.41
2018-10-07T04:00:50.465Z,94885.73
2018-10-07T04:15:52.402Z,94887.37
2018-10-07T04:30:50.358Z,94890.84
2018-10-07T04:45:51.770Z,94891.19
2018-10-07T05:00:51.803Z,94900.94
2018-10-07T05:30:50.896Z,94887.34
2018-10-07T05:45:53.818Z,94882.83
2018-10-07T06:00:51.301Z,94869.53
2018-10-07T06:15:51.072Z,94883.90
2018-10-07T06:30:53.959Z,94880.29
2018-10-07T06:45:51.417Z,94875.49
2018-10-07T07:00:50.572Z,94859.20
2018-10-07T07:15:51.234Z,94865.12
2018-10-07T07:30:51.363Z,94868.44
2018-10-07T07:45:50.730Z,94857.48
2018-10-07T08:00:57.166Z,94839.91
2018-10-07T08:15:51.632Z,94825.66
2018-10-07T08:30:50.443Z,94818.27
2018-10-07T08:45:50.437Z,94801.05
2018-10-07T09:00:50.885Z,94795.66
2018-10-07T09:15:56.576Z,94782.95
2018-10-07T09:30:56.372Z,94766.24
2018-10-07T09:45:51.291Z,94749.09
2018-10-07T10:00:53.451Z,94731.75
2018-10-07T10:15:51.118Z,94708.30
2018-10-07T11:00:57.510Z,94642.31
2018-10-07T12:00:51.123Z,94577.72
2018-10-07T12:15:52.907Z,94565.98
2018-10-07T12:30:54.069Z,94545.86
2018-10-07T12:45:51.092Z,94536.21
2018-10-07T13:00:56.729Z,94514.11
2018-10-07T13:15:53.151Z,94505.27
2018-10-07T13:30:51.381Z,94492.20
2018-10-07T13:45:51.562Z,94491.47
2018-10-07T14:00:51.390Z,94472.11
2018-10-07T14:30:52.123Z,94466.20
2018-10-07T14:45:53.574Z,94466.78
2018-10-07T15:00:51.583Z,94466.06
2018-10-07T15:15:51.359Z,94466.89
2018-10-07T15:30:52.798Z,94474.38
2018-10-07T15:45:50.627Z,94490.80
2018-10-07T16:00:51.422Z,94501.45
2018-10-07T16:15:50.614Z,94505.70
2018-10-07T18:45:51.978Z,94634.94
2018-10-07T19:00:50.902Z,94651.03
2018-10-07T19:15:51.308Z,94655.84
2018-10-07T19:30:50.662Z,94670.31
2018-10-07T19:45:50.702Z,94687.22
2018-10-07T20:00:51.822Z,94690.28
2018-10-07T20:15:50.711Z,94696.50
2018-10-07T20:30:50.995Z,94705.98
2018-10-07T20:45:50.932Z,94705.70
2018-10-07T21:00:51.130Z,94722.46
2018-10-07T21:15:50.927Z,94729.42
2018-10-07T21:30:51.538Z,94714.75
2018-10-07T21:45:53.225Z,94723.30
2018-10-07T22:00:51.476Z,94714.41
2018-10-07T22:15:53.072Z,94704.84
2018-10-07T22:30:50.079Z,94700.38
2018-10-07T22:45:50.783Z,94713.07
2018-10-07T23:00:50.639Z,94712.00
2018-10-07T23:15:50.402Z,94703.05
2018-10-07T23:30:50.778Z,94702.13
2018-10-07T23:45:50.736Z,94701.58
